Time;durP1;ratioP1;P1;durP2;ratioP2;P2;SDS_P1;SDS_P2;PMS_P1;PMS_P2;Temp;Humidity;BMP_temperature;BMP_pressure;BME280_temperature;BME280_humidity;BME280_pressure;Samples;Min_cycle;Max_cycle;Signal;HPM_P1;HPM_P2
2022/02/20 00:00:57;;;;;;;0.55;0.55;;;20.50;37.80;;;;;;5113915;28;20090;-77
2022/02/20 00:03:22;;;;;;;0.90;0.60;;;20.50;37.80;;;;;;5113700;28;20391;-77
2022/02/20 00:05:48;;;;;;;1.00;0.63;;;20.50;37.80;;;;;;5111439;28;20060;-76
2022/02/20 00:08:14;;;;;;;0.60;0.50;;;20.50;38.40;;;;;;5114088;28;20056;-77
2022/02/20 00:10:39;;;;;;;1.08;0.70;;;20.50;37.80;;;;;;5113747;28;20074;-77
2022/02/20 00:13:05;;;;;;;0.47;0.47;;;20.50;37.80;;;;;;5113649;28;20130;-77
2022/02/20 00:15:32;;;;;;;0.90;0.80;;;20.50;37.80;;;;;;5113723;28;20047;-77
2022/02/20 00:18:01;;;;;;;0.70;0.70;;;20.50;37.80;;;;;;5112035;28;20198;-77
2022/02/20 00:20:30;;;;;;;0.57;0.57;;;20.50;37.80;;;;;;5113486;28;20059;-77
2022/02/20 00:23:02;;;;;;;1.08;0.70;;;20.50;37.80;;;;;;5113434;28;20066;-77
2022/02/20 00:25:31;;;;;;;0.85;0.70;;;20.50;37.80;;;;;;5113593;28;20056;-77
2022/02/20 00:28:00;;;;;;;0.50;0.50;;;20.50;37.80;;;;;;5113258;28;20505;-77
2022/02/20 00:30:26;;;;;;;0.55;0.50;;;20.50;37.80;;;;;;5113168;28;20051;-77
2022/02/20 00:32:54;;;;;;;1.00;0.60;;;20.50;37.80;;;;;;5113700;28;20050;-77
2022/02/20 00:35:22;;;;;;;0.95;0.90;;;20.50;37.90;;;;;;5095359;28;20132;-77
2022/02/20 00:37:48;;;;;;;1.08;0.70;;;20.50;37.80;;;;;;5094818;28;20052;-76
2022/02/20 00:40:14;;;;;;;0.55;0.50;;;20.50;37.80;;;;;;5094605;28;20097;-77
2022/02/20 00:42:40;;;;;;;0.70;0.70;;;20.50;37.80;;;;;;5113285;28;20172;-76
2022/02/20 00:45:06;;;;;;;1.10;0.75;;;20.50;37.80;;;;;;5094961;28;20130;-77
2022/02/20 00:47:31;;;;;;;0.57;0.57;;;20.50;37.80;;;;;;5112963;28;20151;-77
2022/02/20 00:49:57;;;;;;;1.67;0.90;;;20.50;37.80;;;;;;5112976;28;20516;-77
2022/02/20 00:52:24;;;;;;;0.77;0.60;;;20.50;37.80;;;;;;5095002;28;20055;-77
2022/02/20 00:54:50;;;;;;;0.50;0.50;;;20.50;37.80;;;;;;5094805;28;20116;-77
2022/02/20 00:57:16;;;;;;;0.60;0.52;;;20.50;37.80;;;;;;5113356;28;20039;-77
2022/02/20 00:59:43;;;;;;;0.57;0.50;;;20.50;37.80;;;;;;5094668;28;20048;-76
2022/02/20 01:02:09;;;;;;;0.73;0.63;;;20.50;37.90;;;;;;5094621;28;20044;-77
2022/02/20 01:04:34;;;;;;;0.80;0.80;;;20.50;37.80;;;;;;5094892;28;20055;-77
2022/02/20 01:07:00;;;;;;;0.80;0.60;;;20.40;37.80;;;;;;5095022;28;20066;-77
2022/02/20 01:09:25;;;;;;;0.70;0.65;;;20.50;37.80;;;;;;5112734;28;20080;-76
2022/02/20 01:11:51;;;;;;;0.60;0.60;;;20.50;37.80;;;;;;5094627;28;20052;-77
2022/02/20 01:14:18;;;;;;;1.02;0.70;;;20.50;37.90;;;;;;5112831;28;20043;-76
2022/02/20 01:16:44;;;;;;;0.68;0.60;;;20.50;37.80;;;;;;5112808;28;20048;-77
2022/02/20 01:19:10;;;;;;;0.70;0.70;;;20.50;37.80;;;;;;5092618;28;20048;-77
2022/02/20 01:21:36;;;;;;;0.50;0.50;;;20.50;37.90;;;;;;5094866;28;20109;-77
2022/02/20 01:24:02;;;;;;;0.68;0.60;;;20.50;37.80;;;;;;5094361;28;20051;-76
2022/02/20 01:26:28;;;;;;;1.00;0.50;;;20.50;37.80;;;;;;5094639;28;20058;-76
2022/02/20 01:28:53;;;;;;;1.17;0.77;;;20.50;38.40;;;;;;5094162;28;20079;-76
2022/02/20 01:31:20;;;;;;;0.88;0.60;;;20.50;37.80;;;;;;5112572;28;20138;-77
2022/02/20 01:33:45;;;;;;;1.00;0.70;;;20.50;37.80;;;;;;5113985;28;20452;-76
2022/02/20 01:36:12;;;;;;;1.38;0.90;;;20.50;37.80;;;;;;5097831;28;20051;-76
2022/02/20 01:38:39;;;;;;;0.68;0.50;;;20.50;37.80;;;;;;5095971;28;20062;-77
2022/02/20 01:41:05;;;;;;;0.70;0.70;;;20.50;37.90;;;;;;5097706;28;20183;-77
2022/02/20 01:43:32;;;;;;;0.60;0.60;;;20.50;37.80;;;;;;5097845;28;20054;-76
2022/02/20 01:45:58;;;;;;;0.70;0.60;;;20.50;37.80;;;;;;5095690;28;20052;-77
2022/02/20 01:48:24;;;;;;;0.40;0.40;;;20.50;37.80;;;;;;5096853;28;20111;-76
2022/02/20 01:50:50;;;;;;;0.63;0.63;;;20.50;37.80;;;;;;5096281;28;20054;-77
2022/02/20 01:53:18;;;;;;;1.00;0.55;;;20.50;37.80;;;;;;5078790;28;20510;-77
2022/02/20 01:55:44;;;;;;;0.60;0.60;;;20.50;37.80;;;;;;5113846;28;20063;-77
2022/02/20 01:58:28;;;;;;;0.82;0.60;;;20.50;37.80;;;;;;5115492;28;20597;-76
2022/02/20 02:01:17;;;;;;;1.27;0.70;;;20.50;37.80;;;;;;5112657;28;20051;-77
2022/02/20 02:03:53;;;;;;;0.70;0.60;;;20.50;37.80;;;;;;5095376;28;20068;-77
2022/02/20 02:06:32;;;;;;;0.45;0.45;;;20.50;37.80;;;;;;5096817;28;20130;-77
2022/02/20 02:09:00;;;;;;;0.82;0.60;;;20.50;37.80;;;;;;5097457;28;20189;-76
2022/02/20 02:12:04;;;;;;;1.02;0.73;;;20.50;37.80;;;;;;5100554;28;20055;-77
2022/02/20 02:14:59;;;;;;;0.75;0.60;;;20.50;37.80;;;;;;5038760;28;20072;-77
2022/02/20 02:17:50;;;;;;;1.30;0.73;;;20.50;37.80;;;;;;5096445;28;20101;-76
2022/02/20 02:20:45;;;;;;;0.95;0.50;;;20.50;37.80;;;;;;5097450;28;20403;-77
2022/02/20 02:23:25;;;;;;;0.73;0.60;;;20.50;37.80;;;;;;5097218;28;20483;-77
2022/02/20 02:26:08;;;;;;;1.10;0.88;;;20.50;37.80;;;;;;5096567;28;20142;-76
2022/02/20 02:28:57;;;;;;;0.75;0.50;;;20.50;37.80;;;;;;5096867;28;20138;-77
2022/02/20 02:31:22;;;;;;;0.77;0.60;;;20.50;37.80;;;;;;5115240;28;20143;-77
2022/02/20 02:33:50;;;;;;;0.50;0.50;;;20.50;37.80;;;;;;5097543;28;20044;-76
2022/02/20 02:36:18;;;;;;;0.75;0.70;;;20.50;37.80;;;;;;5096943;28;20147;-77
2022/02/20 02:38:45;;;;;;;1.20;0.88;;;20.50;37.80;;;;;;5113522;28;20043;-77
2022/02/20 02:41:15;;;;;;;0.60;0.60;;;20.50;37.80;;;;;;5096776;28;20059;-77
2022/02/20 02:43:48;;;;;;;0.60;0.60;;;20.50;37.80;;;;;;5115201;28;20056;-77
2022/02/20 02:46:14;;;;;;;1.00;0.50;;;20.50;37.90;;;;;;5095293;28;20460;-76
2022/02/20 02:48:48;;;;;;;0.88;0.60;;;20.50;37.80;;;;;;5096769;28;20048;-77
2022/02/20 02:51:17;;;;;;;0.65;0.50;;;20.50;37.80;;;;;;5094573;28;20094;-77
2022/02/20 02:53:45;;;;;;;0.95;0.77;;;20.50;37.90;;;;;;5114828;28;20130;-77
2022/02/20 02:56:12;;;;;;;0.98;0.77;;;20.50;37.80;;;;;;5095918;28;20055;-76
2022/02/20 02:58:38;;;;;;;1.75;0.65;;;20.50;37.90;;;;;;5096132;28;20055;-76
2022/02/20 03:01:08;;;;;;;0.70;0.50;;;20.50;37.80;;;;;;5096586;28;20067;-76
2022/02/20 03:03:34;;;;;;;0.60;0.60;;;20.50;37.80;;;;;;5094586;28;20497;-77
2022/02/20 03:06:00;;;;;;;0.65;0.60;;;20.50;37.80;;;;;;5095703;28;20064;-77
2022/02/20 03:08:27;;;;;;;0.73;0.73;;;20.50;37.80;;;;;;5095181;28;20052;-76
2022/02/20 03:10:52;;;;;;;0.60;0.60;;;20.50;37.80;;;;;;5096581;28;20054;-77
2022/02/20 03:13:18;;;;;;;0.40;0.40;;;20.50;37.80;;;;;;5095233;28;20510;-77
2022/02/20 03:15:46;;;;;;;0.70;0.50;;;20.50;37.80;;;;;;5094784;28;20052;-76
2022/02/20 03:18:12;;;;;;;0.77;0.60;;;20.50;37.80;;;;;;5096172;28;20048;-77
2022/02/20 03:20:38;;;;;;;1.00;0.70;;;20.50;37.80;;;;;;5113164;28;20435;-77
2022/02/20 03:23:04;;;;;;;1.15;0.70;;;20.50;37.80;;;;;;5114455;28;20063;-76
2022/02/20 03:25:31;;;;;;;0.57;0.57;;;20.50;37.80;;;;;;5094420;28;20051;-77
2022/02/20 03:28:00;;;;;;;0.50;0.50;;;20.50;37.80;;;;;;5096448;28;20112;-77
2022/02/20 03:30:36;;;;;;;0.90;0.68;;;20.50;37.80;;;;;;5095944;28;20100;-77
2022/02/20 03:33:03;;;;;;;1.17;0.80;;;20.50;37.80;;;;;;5095990;28;20051;-77
2022/02/20 03:35:28;;;;;;;0.52;0.52;;;20.50;37.80;;;;;;5114250;28;20051;-77
2022/02/20 03:37:54;;;;;;;0.90;0.60;;;20.50;37.80;;;;;;5095645;28;20052;-76
2022/02/20 03:40:29;;;;;;;0.68;0.60;;;20.50;37.80;;;;;;5095836;28;20475;-77
2022/02/20 03:42:55;;;;;;;0.63;0.55;;;20.50;37.80;;;;;;5114232;28;20142;-77
2022/02/20 03:45:39;;;;;;;0.63;0.60;;;20.50;37.80;;;;;;5114548;28;20101;-77
2022/02/20 03:48:05;;;;;;;0.90;0.60;;;20.50;37.80;;;;;;5094032;28;20052;-77
2022/02/20 03:50:32;;;;;;;0.50;0.50;;;20.50;37.80;;;;;;5112590;28;20134;-77
2022/02/20 03:52:58;;;;;;;0.55;0.45;;;20.50;37.80;;;;;;5095374;28;20155;-77
2022/02/20 03:55:27;;;;;;;0.50;0.50;;;20.50;37.80;;;;;;5095666;28;20376;-77
2022/02/20 03:57:55;;;;;;;1.13;0.65;;;20.50;37.80;;;;;;5112004;28;20048;-77
2022/02/20 04:00:33;;;;;;;1.33;0.60;;;20.50;37.80;;;;;;5094032;28;20048;-77
2022/02/20 04:03:17;;;;;;;0.60;0.60;;;20.50;37.80;;;;;;5112937;28;20406;-77
2022/02/20 04:05:48;;;;;;;0.50;0.47;;;20.50;37.80;;;;;;5079050;28;20055;-77
2022/02/20 04:08:14;;;;;;;0.45;0.45;;;20.50;37.80;;;;;;5094457;28;20139;-77
2022/02/20 04:10:40;;;;;;;0.40;0.40;;;20.50;37.80;;;;;;5076564;28;20080;-77
2022/02/20 04:13:10;;;;;;;0.77;0.70;;;20.50;37.80;;;;;;5095516;28;20147;-77
2022/02/20 04:15:47;;;;;;;1.48;0.60;;;20.50;37.80;;;;;;5095979;28;20043;-77
2022/02/20 04:18:24;;;;;;;0.65;0.50;;;20.50;37.80;;;;;;5094775;28;20495;-76
2022/02/20 04:21:23;;;;;;;1.05;0.60;;;20.50;37.80;;;;;;5093707;28;20051;-77
2022/02/20 04:23:53;;;;;;;0.50;0.50;;;20.50;37.70;;;;;;5095506;28;20062;-77
2022/02/20 04:26:19;;;;;;;0.65;0.63;;;20.50;37.80;;;;;;5095108;28;20053;-76
2022/02/20 04:28:48;;;;;;;1.15;0.57;;;20.50;37.70;;;;;;5095602;28;20124;-77
2022/02/20 04:31:14;;;;;;;0.60;0.60;;;20.50;37.80;;;;;;5095107;28;20414;-77
2022/02/20 04:33:41;;;;;;;1.00;0.55;;;20.50;37.80;;;;;;5095077;28;20134;-77
2022/02/20 04:36:07;;;;;;;0.55;0.55;;;20.50;37.80;;;;;;5094298;28;20048;-77
2022/02/20 04:38:33;;;;;;;0.60;0.60;;;20.50;37.80;;;;;;5094721;28;20054;-76
2022/02/20 04:41:04;;;;;;;1.10;0.60;;;20.50;37.80;;;;;;5094930;28;20048;-77
2022/02/20 04:43:33;;;;;;;0.55;0.50;;;20.50;37.80;;;;;;5095023;28;20043;-77
2022/02/20 04:46:05;;;;;;;0.60;0.60;;;20.50;37.80;;;;;;5111391;28;20124;-77
2022/02/20 04:48:30;;;;;;;0.57;0.57;;;20.50;37.80;;;;;;5093093;28;20090;-77
2022/02/20 04:50:58;;;;;;;0.70;0.60;;;20.50;37.80;;;;;;5094761;28;20549;-77
2022/02/20 04:53:23;;;;;;;0.47;0.47;;;20.50;37.80;;;;;;5093515;28;20052;-77
2022/02/20 04:55:55;;;;;;;0.60;0.50;;;20.50;37.80;;;;;;5094200;28;20048;-77
2022/02/20 04:58:28;;;;;;;0.88;0.70;;;20.50;37.80;;;;;;5093543;28;20055;-76
2022/02/20 05:00:54;;;;;;;1.00;0.70;;;20.50;37.80;;;;;;5093223;28;20142;-77
2022/02/20 05:03:26;;;;;;;0.68;0.55;;;20.50;37.80;;;;;;5112993;28;20407;-77
2022/02/20 05:06:11;;;;;;;0.60;0.60;;;20.50;37.80;;;;;;5113509;28;20049;-77
2022/02/20 05:08:45;;;;;;;0.70;0.45;;;20.50;37.80;;;;;;5096270;28;20047;-77
2022/02/20 05:11:32;;;;;;;0.95;0.43;;;20.50;37.70;;;;;;5114520;28;20052;-77
2022/02/20 05:14:03;;;;;;;0.93;0.63;;;20.50;37.80;;;;;;5098382;28;20055;-77
2022/02/20 05:16:31;;;;;;;0.43;0.40;;;20.50;37.80;;;;;;5096496;28;20131;-77
2022/02/20 05:18:58;;;;;;;0.47;0.47;;;20.50;37.80;;;;;;5115224;28;20048;-76
2022/02/20 05:21:24;;;;;;;1.02;0.52;;;20.50;37.80;;;;;;5114727;28;20130;-77
2022/02/20 05:23:51;;;;;;;0.50;0.50;;;20.50;37.80;;;;;;5116395;28;20058;-76
2022/02/20 05:26:17;;;;;;;0.60;0.60;;;20.50;37.80;;;;;;5116641;28;20138;-76
2022/02/20 05:28:49;;;;;;;0.52;0.52;;;20.50;37.80;;;;;;5115270;28;20142;-77
2022/02/20 05:31:17;;;;;;;0.98;0.60;;;20.50;37.80;;;;;;5097764;28;20097;-77
2022/02/20 05:33:50;;;;;;;0.55;0.47;;;20.50;37.80;;;;;;5081242;28;20110;-76
2022/02/20 05:36:17;;;;;;;0.77;0.50;;;20.50;37.80;;;;;;5097902;28;20051;-77
2022/02/20 05:38:52;;;;;;;0.50;0.50;;;20.50;37.80;;;;;;5097829;28;20056;-77
2022/02/20 05:41:20;;;;;;;0.55;0.50;;;20.50;37.80;;;;;;5097703;28;20052;-76
2022/02/20 05:43:47;;;;;;;1.05;0.63;;;20.50;37.80;;;;;;5096067;28;20411;-77
2022/02/20 05:46:15;;;;;;;0.63;0.60;;;20.50;37.80;;;;;;5081067;28;20087;-77
2022/02/20 05:48:43;;;;;;;1.00;0.60;;;20.50;37.80;;;;;;5097518;28;20051;-76
2022/02/20 05:51:15;;;;;;;0.95;0.70;;;20.50;37.80;;;;;;5098369;28;20055;-76
2022/02/20 05:53:47;;;;;;;0.73;0.50;;;20.50;37.80;;;;;;5097722;28;20055;-76
2022/02/20 05:56:17;;;;;;;0.63;0.52;;;20.50;37.70;;;;;;5097479;28;20051;-76
2022/02/20 05:58:52;;;;;;;0.40;0.40;;;20.50;37.70;;;;;;5097308;28;20055;-76
2022/02/20 06:01:19;;;;;;;0.98;0.50;;;20.50;37.80;;;;;;5095789;28;20080;-77
2022/02/20 06:03:49;;;;;;;0.50;0.50;;;20.50;37.80;;;;;;5097473;28;20476;-77
2022/02/20 06:06:32;;;;;;;0.57;0.57;;;20.50;37.80;;;;;;5097381;28;20087;-77
2022/02/20 06:09:05;;;;;;;0.50;0.50;;;20.50;38.00;;;;;;5097214;28;20047;-77
2022/02/20 06:11:38;;;;;;;0.43;0.43;;;20.50;37.80;;;;;;5097965;28;20058;-76
2022/02/20 06:14:23;;;;;;;0.60;0.57;;;20.50;37.70;;;;;;5097473;28;20411;-77
2022/02/20 06:17:12;;;;;;;0.57;0.50;;;20.50;37.80;;;;;;5115600;28;20051;-76
2022/02/20 06:19:45;;;;;;;0.50;0.50;;;20.50;37.80;;;;;;5097487;28;20048;-77
2022/02/20 06:22:22;;;;;;;0.80;0.63;;;20.50;37.80;;;;;;5097510;28;20055;-77
2022/02/20 06:25:06;;;;;;;0.60;0.60;;;20.50;37.80;;;;;;5115116;28;20387;-77
2022/02/20 06:28:02;;;;;;;0.57;0.50;;;20.50;37.80;;;;;;5110943;28;20091;-77
2022/02/20 06:30:30;;;;;;;0.60;0.60;;;20.50;37.80;;;;;;5080774;28;20551;-77
2022/02/20 06:32:55;;;;;;;0.73;0.73;;;20.50;37.80;;;;;;5096899;28;20139;-77
2022/02/20 06:35:21;;;;;;;0.47;0.47;;;20.50;37.80;;;;;;5096924;28;20071;-77
2022/02/20 06:37:47;;;;;;;0.60;0.52;;;20.50;37.70;;;;;;5079690;28;20047;-77
2022/02/20 06:40:13;;;;;;;0.45;0.45;;;20.50;37.80;;;;;;5096781;28;20048;-77
2022/02/20 06:42:39;;;;;;;1.15;0.73;;;20.50;37.80;;;;;;5097162;28;20104;-77
2022/02/20 06:45:13;;;;;;;0.50;0.50;;;20.50;37.80;;;;;;5097143;28;20128;-77
2022/02/20 06:48:05;;;;;;;0.85;0.60;;;20.50;37.80;;;;;;5098316;28;20383;-76
2022/02/20 06:50:49;;;;;;;0.50;0.50;;;20.50;37.80;;;;;;5097347;28;20063;-77
2022/02/20 06:53:25;;;;;;;0.60;0.60;;;20.50;37.80;;;;;;5095038;28;20056;-77
2022/02/20 06:56:14;;;;;;;0.70;0.60;;;20.50;37.80;;;;;;5103780;28;20060;-77
2022/02/20 06:58:42;;;;;;;0.50;0.50;;;20.50;37.80;;;;;;5114830;28;20058;-77
2022/02/20 07:01:09;;;;;;;0.60;0.60;;;20.50;37.70;;;;;;5114848;28;20138;-77
2022/02/20 07:03:35;;;;;;;0.55;0.55;;;20.50;37.70;;;;;;5114750;28;20063;-77
2022/02/20 07:06:01;;;;;;;0.80;0.60;;;20.50;37.70;;;;;;5114573;28;20059;-77
2022/02/20 07:08:26;;;;;;;0.75;0.50;;;20.50;37.70;;;;;;5114561;28;20130;-77
2022/02/20 07:10:52;;;;;;;0.65;0.50;;;20.50;37.70;;;;;;5114528;28;20047;-77
2022/02/20 07:13:17;;;;;;;0.73;0.73;;;20.50;37.70;;;;;;5114550;28;20510;-77
2022/02/20 07:15:43;;;;;;;0.73;0.68;;;20.50;37.70;;;;;;5113658;28;20053;-77
2022/02/20 07:18:09;;;;;;;0.40;0.40;;;20.50;37.70;;;;;;5112224;28;20059;-77
2022/02/20 07:20:35;;;;;;;0.45;0.45;;;20.50;37.70;;;;;;5111716;28;20052;-77
2022/02/20 07:23:00;;;;;;;0.50;0.50;;;20.50;37.80;;;;;;5114844;28;20138;-77
2022/02/20 07:25:26;;;;;;;0.90;0.65;;;20.50;37.70;;;;;;5114567;28;20050;-77
2022/02/20 07:27:54;;;;;;;0.30;0.30;;;20.50;37.70;;;;;;5096303;28;20035;-76
2022/02/20 07:30:27;;;;;;;0.63;0.60;;;20.50;37.70;;;;;;5111467;28;20488;-77
2022/02/20 07:32:54;;;;;;;0.75;0.50;;;20.50;37.70;;;;;;5113793;28;20055;-77
2022/02/20 07:35:19;;;;;;;0.70;0.50;;;20.50;37.70;;;;;;5079204;28;20060;-77
2022/02/20 07:37:45;;;;;;;0.90;0.60;;;20.50;37.70;;;;;;5114310;28;20043;-77
2022/02/20 07:40:11;;;;;;;1.15;0.63;;;20.50;37.70;;;;;;5114093;28;20127;-77
2022/02/20 07:42:37;;;;;;;0.88;0.63;;;20.50;37.70;;;;;;5114509;28;20051;-77
2022/02/20 07:45:03;;;;;;;0.77;0.60;;;20.50;37.70;;;;;;5114460;28;20547;-77
2022/02/20 07:47:29;;;;;;;1.00;0.50;;;20.50;37.70;;;;;;5114036;28;20052;-77
2022/02/20 07:49:54;;;;;;;0.57;0.57;;;20.50;37.70;;;;;;5114105;28;20206;-76
2022/02/20 07:52:21;;;;;;;0.73;0.55;;;20.50;37.70;;;;;;5096053;28;20043;-77
2022/02/20 07:54:46;;;;;;;0.55;0.55;;;20.50;37.60;;;;;;5095638;28;20058;-77
2022/02/20 07:57:12;;;;;;;0.50;0.50;;;20.60;38.20;;;;;;5112639;28;20044;-77
2022/02/20 07:59:38;;;;;;;0.50;0.50;;;20.50;37.60;;;;;;5112709;28;20055;-77
2022/02/20 08:02:04;;;;;;;0.55;0.55;;;20.50;37.60;;;;;;5114168;28;20083;-77
2022/02/20 08:04:29;;;;;;;0.40;0.40;;;20.60;37.70;;;;;;5113921;28;20066;-76
2022/02/20 08:06:55;;;;;;;0.45;0.45;;;20.50;37.60;;;;;;5113717;28;20048;-77
2022/02/20 08:09:20;;;;;;;0.50;0.40;;;20.50;37.60;;;;;;5095640;28;20098;-77
2022/02/20 08:11:46;;;;;;;0.50;0.50;;;20.50;37.60;;;;;;5113747;28;20112;-76
2022/02/20 08:14:11;;;;;;;0.57;0.50;;;20.50;37.60;;;;;;5077218;28;20086;-76
2022/02/20 08:16:37;;;;;;;0.60;0.40;;;20.60;37.60;;;;;;5113895;28;20455;-77
2022/02/20 08:19:03;;;;;;;0.50;0.50;;;20.50;37.60;;;;;;5113493;28;20415;-77
2022/02/20 08:21:29;;;;;;;0.68;0.50;;;20.60;37.60;;;;;;5095225;28;20445;-77
2022/02/20 08:23:55;;;;;;;0.50;0.50;;;20.60;37.60;;;;;;5113533;28;20056;-77
2022/02/20 08:26:24;;;;;;;1.15;0.82;;;20.50;37.50;;;;;;5113501;28;20086;-77
2022/02/20 08:28:49;;;;;;;0.60;0.60;;;20.60;37.60;;;;;;5095587;28;20142;-77
2022/02/20 08:31:15;;;;;;;0.60;0.60;;;20.50;37.60;;;;;;5095223;28;20462;-77
2022/02/20 08:33:42;;;;;;;0.47;0.43;;;20.60;37.60;;;;;;5113810;28;20051;-77
2022/02/20 08:36:09;;;;;;;0.40;0.40;;;20.60;37.60;;;;;;5094973;28;20062;-77
2022/02/20 08:38:36;;;;;;;0.60;0.60;;;20.60;37.60;;;;;;5095044;28;20506;-77
2022/02/20 08:41:03;;;;;;;0.65;0.55;;;20.50;37.60;;;;;;5113092;28;20052;-77
2022/02/20 08:43:28;;;;;;;0.65;0.50;;;20.50;37.60;;;;;;5113189;28;20047;-77
2022/02/20 08:45:54;;;;;;;0.52;0.50;;;20.60;37.60;;;;;;5094805;28;20047;-77
2022/02/20 08:48:19;;;;;;;0.70;0.50;;;20.60;37.60;;;;;;5093584;28;20109;-77
2022/02/20 08:50:45;;;;;;;0.60;0.50;;;20.50;37.60;;;;;;5109995;28;20060;-77
2022/02/20 08:53:11;;;;;;;0.40;0.40;;;20.60;37.60;;;;;;5113191;28;20574;-77
2022/02/20 08:55:38;;;;;;;0.50;0.50;;;20.60;37.60;;;;;;5094849;28;20109;-77
2022/02/20 08:58:04;;;;;;;0.85;0.50;;;20.60;37.60;;;;;;5113464;28;20470;-77
2022/02/20 09:00:30;;;;;;;0.50;0.50;;;20.60;38.20;;;;;;5094851;28;20058;-77
2022/02/20 09:02:55;;;;;;;0.60;0.60;;;20.50;38.10;;;;;;5113301;28;20054;-77
2022/02/20 09:05:21;;;;;;;0.63;0.63;;;20.60;37.60;;;;;;5093422;28;20056;-77
2022/02/20 09:07:46;;;;;;;0.50;0.50;;;20.60;37.60;;;;;;5112826;28;20099;-77
2022/02/20 09:10:12;;;;;;;0.40;0.40;;;20.60;37.60;;;;;;5112905;28;20059;-77
2022/02/20 09:12:40;;;;;;;0.52;0.50;;;20.60;37.60;;;;;;5094891;28;20047;-77
2022/02/20 09:15:09;;;;;;;0.40;0.40;;;20.60;37.60;;;;;;5112817;28;20142;-76
2022/02/20 09:17:36;;;;;;;0.50;0.50;;;20.60;37.60;;;;;;5112826;28;20040;-77
2022/02/20 09:20:02;;;;;;;0.82;0.60;;;20.60;37.60;;;;;;5092197;28;20096;-77
2022/02/20 09:22:28;;;;;;;0.50;0.50;;;20.60;37.60;;;;;;5112810;28;20056;-77
2022/02/20 09:24:55;;;;;;;0.63;0.52;;;20.60;37.60;;;;;;5113025;28;20044;-77
2022/02/20 09:27:21;;;;;;;0.52;0.50;;;20.60;37.60;;;;;;5112682;28;20062;-77
2022/02/20 09:29:47;;;;;;;0.50;0.50;;;20.60;37.60;;;;;;5094346;28;20513;-77
2022/02/20 09:32:12;;;;;;;0.50;0.50;;;20.60;37.60;;;;;;5113181;28;20123;-76
2022/02/20 09:34:38;;;;;;;0.65;0.50;;;20.60;37.60;;;;;;5112720;28;20128;-77
2022/02/20 09:37:04;;;;;;;0.80;0.50;;;20.60;37.60;;;;;;5112858;28;20109;-77
2022/02/20 09:39:30;;;;;;;0.52;0.52;;;20.60;37.60;;;;;;5112375;28;20059;-77
2022/02/20 09:42:00;;;;;;;0.47;0.47;;;20.60;37.60;;;;;;5112489;28;20048;-77
2022/02/20 09:44:29;;;;;;;0.57;0.50;;;20.60;37.50;;;;;;5112568;28;20058;-76
2022/02/20 09:46:57;;;;;;;0.50;0.50;;;20.60;37.50;;;;;;5112683;28;20047;-77
2022/02/20 09:49:27;;;;;;;0.50;0.50;;;20.60;37.50;;;;;;5112509;28;20056;-76
2022/02/20 09:51:54;;;;;;;0.40;0.40;;;20.60;37.60;;;;;;5112456;28;20055;-77
2022/02/20 09:54:19;;;;;;;0.90;0.70;;;20.60;37.50;;;;;;5113050;28;20048;-77
2022/02/20 09:56:45;;;;;;;0.43;0.43;;;20.60;37.50;;;;;;5115892;28;20058;-77
2022/02/20 09:59:10;;;;;;;0.40;0.40;;;20.60;37.50;;;;;;5115648;28;20056;-77
2022/02/20 10:01:56;;;;;;;1.08;0.70;;;20.60;37.50;;;;;;5115815;28;20070;-77
2022/02/20 10:04:34;;;;;;;0.65;0.50;;;20.60;37.50;;;;;;5115514;28;20059;-77
2022/02/20 10:07:00;;;;;;;0.50;0.50;;;20.60;37.50;;;;;;5115533;28;20067;-76
2022/02/20 10:09:26;;;;;;;0.43;0.40;;;20.60;38.10;;;;;;5115584;28;20487;-76
2022/02/20 10:11:51;;;;;;;0.68;0.60;;;20.60;37.50;;;;;;5115656;28;20496;-76
2022/02/20 10:14:21;;;;;;;0.82;0.63;;;20.60;37.50;;;;;;5115908;28;20062;-77
2022/02/20 10:16:46;;;;;;;0.70;0.55;;;20.60;37.50;;;;;;5115506;28;20623;-76
2022/02/20 10:19:32;;;;;;;0.68;0.60;;;20.60;37.50;;;;;;5098532;28;20100;-76
2022/02/20 10:22:33;;;;;;;0.70;0.68;;;20.60;37.50;;;;;;5114764;28;20062;-77
2022/02/20 10:25:17;;;;;;;0.57;0.40;;;20.60;37.50;;;;;;5115848;28;20093;-76
2022/02/20 10:28:05;;;;;;;0.60;0.50;;;20.60;37.50;;;;;;5097961;28;20077;-77
2022/02/20 10:30:43;;;;;;;0.43;0.43;;;20.60;38.00;;;;;;5081952;28;20074;-77
2022/02/20 10:33:12;;;;;;;0.65;0.57;;;20.60;37.50;;;;;;5097067;28;20089;-77
2022/02/20 10:35:49;;;;;;;0.63;0.63;;;20.60;37.50;;;;;;5115282;28;20135;-77
2022/02/20 10:38:17;;;;;;;0.60;0.60;;;20.60;37.50;;;;;;5114937;28;20079;-77
2022/02/20 10:40:45;;;;;;;0.40;0.40;;;20.60;37.50;;;;;;5094849;28;20052;-77
2022/02/20 10:43:31;;;;;;;0.60;0.60;;;20.60;37.40;;;;;;5115418;28;20101;-77
2022/02/20 10:46:20;;;;;;;0.63;0.55;;;20.60;37.50;;;;;;5115265;28;20484;-77
2022/02/20 10:48:49;;;;;;;0.40;0.40;;;20.60;37.50;;;;;;5115097;28;20054;-77
2022/02/20 10:51:19;;;;;;;0.75;0.50;;;20.60;37.50;;;;;;5115369;28;20058;-77
2022/02/20 10:53:48;;;;;;;0.40;0.40;;;20.60;37.50;;;;;;5115061;28;20075;-76
2022/02/20 10:56:16;;;;;;;0.50;0.40;;;20.60;37.50;;;;;;5079759;28;20056;-77
2022/02/20 10:58:45;;;;;;;0.40;0.40;;;20.60;37.50;;;;;;5113459;28;20063;-77
2022/02/20 11:01:24;;;;;;;0.60;0.50;;;20.60;37.50;;;;;;5114921;28;20147;-77
2022/02/20 11:03:53;;;;;;;0.40;0.40;;;20.60;37.50;;;;;;5095020;28;20056;-76
2022/02/20 11:06:20;;;;;;;0.77;0.65;;;20.60;37.50;;;;;;5113638;28;20047;-76
2022/02/20 11:08:46;;;;;;;0.40;0.40;;;20.60;37.50;;;;;;5114612;28;20062;-76
2022/02/20 11:14:00;;;;;;;0.40;0.40;;;20.60;37.50;;;;;;5114645;28;20063;-76
2022/02/20 11:16:28;;;;;;;0.40;0.40;;;20.60;37.50;;;;;;5096147;28;20477;-76
2022/02/20 11:18:55;;;;;;;0.60;0.55;;;20.60;37.50;;;;;;5114367;28;20487;-76
2022/02/20 11:21:25;;;;;;;0.30;0.30;;;20.50;37.50;;;;;;5114465;28;20062;-77
2022/02/20 11:23:55;;;;;;;0.40;0.40;;;20.60;37.50;;;;;;5096245;28;20043;-77
2022/02/20 11:26:22;;;;;;;1.02;0.60;;;20.60;37.50;;;;;;5094519;28;20048;-77
2022/02/20 11:28:49;;;;;;;0.35;0.35;;;20.60;37.50;;;;;;5115007;28;20055;-76
2022/02/20 11:31:19;;;;;;;0.57;0.50;;;20.60;37.50;;;;;;5112865;28;20060;-76
2022/02/20 11:33:51;;;;;;;0.50;0.50;;;20.60;37.50;;;;;;5113302;28;20051;-77
2022/02/20 11:36:24;;;;;;;0.55;0.50;;;20.60;37.50;;;;;;5114332;28;20105;-76
2022/02/20 11:39:06;;;;;;;0.50;0.50;;;20.60;37.50;;;;;;5095963;28;20070;-77
2022/02/20 11:41:32;;;;;;;0.60;0.40;;;20.60;37.50;;;;;;5095954;28;20518;-77
2022/02/20 11:44:10;;;;;;;1.92;0.50;;;20.60;37.50;;;;;;5114147;28;20074;-77
2022/02/20 11:46:51;;;;;;;0.85;0.57;;;20.60;37.50;;;;;;5114723;28;20130;-76
2022/02/20 11:49:19;;;;;;;0.50;0.50;;;20.60;37.50;;;;;;5094955;28;20063;-76
2022/02/20 11:51:55;;;;;;;0.40;0.40;;;20.60;37.50;;;;;;5095826;28;20483;-77
2022/02/20 11:54:21;;;;;;;0.43;0.43;;;20.60;37.50;;;;;;5114032;28;20138;-77
2022/02/20 11:57:12;;;;;;;0.30;0.30;;;20.60;37.60;;;;;;5095938;28;20079;-77
2022/02/20 11:59:39;;;;;;;0.35;0.35;;;20.60;37.50;;;;;;5113708;28;20483;-76
2022/02/20 12:02:11;;;;;;;0.45;0.45;;;20.60;37.50;;;;;;5113797;28;20058;-76
2022/02/20 12:04:55;;;;;;;0.43;0.43;;;20.60;37.50;;;;;;5095555;28;20491;-77
2022/02/20 12:07:48;;;;;;;0.40;0.40;;;20.60;37.50;;;;;;5114049;28;20075;-76
2022/02/20 12:10:20;;;;;;;0.40;0.40;;;20.50;37.50;;;;;;5113437;28;20055;-77
2022/02/20 12:12:53;;;;;;;0.52;0.52;;;20.60;37.50;;;;;;5111478;28;20408;-77
2022/02/20 12:15:38;;;;;;;0.40;0.40;;;20.60;37.50;;;;;;5113702;28;20130;-76
2022/02/20 12:18:16;;;;;;;0.40;0.40;;;20.60;37.40;;;;;;5112927;28;20062;-77
2022/02/20 12:20:54;;;;;;;0.55;0.55;;;20.60;37.40;;;;;;5113770;28;20048;-77
2022/02/20 12:23:29;;;;;;;0.45;0.45;;;20.60;37.40;;;;;;5113324;28;20148;-77
2022/02/20 12:25:56;;;;;;;0.47;0.47;;;20.60;37.40;;;;;;5113378;28;20047;-77
2022/02/20 12:28:37;;;;;;;0.38;0.38;;;20.60;37.40;;;;;;5113121;28;20506;-76
2022/02/20 12:31:15;;;;;;;0.50;0.50;;;20.60;37.40;;;;;;5093675;28;20052;-77
2022/02/20 12:33:49;;;;;;;0.40;0.40;;;20.60;37.40;;;;;;5113814;28;20492;-77
2022/02/20 12:36:30;;;;;;;0.40;0.40;;;20.60;37.40;;;;;;5095535;28;20063;-77
2022/02/20 12:39:03;;;;;;;0.40;0.40;;;20.60;37.40;;;;;;5113456;28;20051;-77
2022/02/20 12:41:29;;;;;;;0.50;0.50;;;20.60;37.40;;;;;;5113715;28;20078;-77
2022/02/20 12:43:57;;;;;;;0.50;0.50;;;20.60;37.30;;;;;;5094363;28;20455;-76
2022/02/20 12:46:24;;;;;;;0.50;0.40;;;20.60;37.30;;;;;;5094521;28;20499;-77
2022/02/20 12:48:50;;;;;;;0.40;0.40;;;20.60;37.30;;;;;;5094973;28;20127;-77
2022/02/20 12:51:17;;;;;;;0.47;0.40;;;20.60;37.40;;;;;;5111943;28;20487;-77
2022/02/20 12:53:46;;;;;;;0.50;0.50;;;20.60;37.40;;;;;;5113238;28;20574;-77
2022/02/20 12:56:12;;;;;;;0.40;0.40;;;20.60;37.50;;;;;;5113199;28;20043;-77
2022/02/20 12:58:47;;;;;;;0.40;0.40;;;20.60;37.40;;;;;;5112978;28;20517;-77
2022/02/20 13:01:19;;;;;;;0.40;0.40;;;20.60;37.40;;;;;;5112311;28;20063;-77
2022/02/20 13:03:53;;;;;;;0.40;0.40;;;20.60;38.00;;;;;;5113135;28;20059;-77
2022/02/20 13:06:19;;;;;;;0.55;0.55;;;20.60;37.50;;;;;;5112929;28;20052;-76